createdAt,value
2023-03-23T16:00:04.449Z,1.80
2023-03-23T16:02:43.797Z,2.10
2023-03-23T16:05:15.660Z,1.90
2023-03-23T16:07:46.260Z,1.63
2023-03-23T16:10:20.995Z,1.90
2023-03-23T16:12:51.476Z,1.60
2023-03-23T16:15:23.973Z,1.50
2023-03-23T16:17:54.445Z,1.70
2023-03-23T16:20:26.278Z,2.10
2023-03-23T16:22:56.697Z,1.63
2023-03-23T16:25:27.770Z,1.80
2023-03-23T16:27:58.211Z,1.98
2023-03-23T16:30:35.090Z,2.17
2023-03-23T16:33:05.772Z,1.83
2023-03-23T16:35:36.879Z,2.70
2023-03-23T16:38:09.224Z,2.70
2023-03-23T16:40:41.433Z,2.47
2023-03-23T16:43:12.934Z,3.05
2023-03-23T16:45:47.470Z,2.88
2023-03-23T16:48:18.738Z,2.88
2023-03-23T16:50:49.543Z,2.80
2023-03-23T16:53:20.247Z,2.92
2023-03-23T16:55:54.000Z,2.78
2023-03-23T16:58:28.469Z,3.17
2023-03-23T17:01:02.277Z,2.72
2023-03-23T17:03:32.678Z,3.45
2023-03-23T17:06:04.646Z,3.42
2023-03-23T17:08:35.111Z,4.72
2023-03-23T17:11:06.150Z,4.95
2023-03-23T17:13:36.585Z,5.28
2023-03-23T17:16:11.498Z,5.63
2023-03-23T17:18:41.988Z,5.88
2023-03-23T17:21:12.885Z,5.57
2023-03-23T17:23:43.189Z,4.60
2023-03-23T17:26:14.014Z,5.15
2023-03-23T17:28:44.507Z,7.15
2023-03-23T17:31:16.923Z,8.38
2023-03-23T17:33:47.770Z,9.27
2023-03-23T17:36:18.646Z,8.38
2023-03-23T17:38:49.373Z,7.65
2023-03-23T17:41:21.568Z,5.75
2023-03-23T17:43:52.222Z,5.35
2023-03-23T17:46:24.792Z,5.10
2023-03-23T17:48:55.680Z,4.60
2023-03-23T17:51:26.508Z,3.78
2023-03-23T17:53:57.666Z,3.70
2023-03-23T17:56:28.658Z,6.45
2023-03-23T17:58:59.554Z,10.27
2023-03-23T18:01:31.879Z,9.32
2023-03-23T18:04:03.747Z,7.53
2023-03-23T18:06:34.519Z,5.70
2023-03-23T18:09:06.144Z,6.65
2023-03-23T18:11:37.215Z,8.68
2023-03-23T18:14:07.959Z,9.98
2023-03-23T18:16:40.548Z,13.57
2023-03-23T18:19:11.405Z,10.45
2023-03-23T18:21:44.516Z,6.90
2023-03-23T18:24:16.774Z,9.02
2023-03-23T18:26:47.954Z,7.43
2023-03-23T18:29:18.604Z,7.22
2023-03-23T18:31:50.862Z,10.05
2023-03-23T18:34:21.399Z,9.32
2023-03-23T18:36:52.996Z,10.23
2023-03-23T18:39:23.730Z,10.57
2023-03-23T18:41:54.591Z,10.57
2023-03-23T18:44:25.112Z,11.23
2023-03-23T18:46:57.593Z,11.35
2023-03-23T18:49:30.064Z,9.82
2023-03-23T18:52:01.367Z,8.50
2023-03-23T18:54:34.878Z,9.82
2023-03-23T18:57:05.735Z,8.82
2023-03-23T18:59:36.362Z,9.55
2023-03-23T19:02:09.128Z,8.65
2023-03-23T19:04:39.613Z,7.83
2023-03-23T19:07:11.177Z,8.07
2023-03-23T19:09:43.745Z,8.50
2023-03-23T19:12:15.834Z,7.95
2023-03-23T19:14:46.787Z,9.38
2023-03-23T19:17:19.482Z,9.07
2023-03-23T19:19:49.902Z,8.65
2023-03-23T19:22:20.789Z,8.55
2023-03-23T19:24:51.833Z,8.63
2023-03-23T19:27:22.617Z,8.23
2023-03-23T19:29:53.264Z,9.32
2023-03-23T19:32:25.834Z,8.35
2023-03-23T19:34:56.459Z,9.15
2023-03-23T19:37:27.804Z,8.40
2023-03-23T19:40:00.106Z,8.68
2023-03-23T19:42:31.664Z,8.05
2023-03-23T19:45:03.404Z,8.82
2023-03-23T19:47:36.277Z,12.90
2023-03-23T19:50:08.824Z,13.43
2023-03-23T19:52:42.019Z,12.88
2023-03-23T19:55:13.002Z,14.73
2023-03-23T19:57:44.743Z,15.63
2023-03-23T20:00:17.337Z,17.02
2023-03-23T20:02:49.746Z,16.92
2023-03-23T20:05:20.691Z,20.35
2023-03-23T20:07:52.698Z,22.33
2023-03-23T20:10:24.119Z,31.00
2023-03-23T20:12:55.129Z,34.00
2023-03-23T20:15:25.861Z,26.13
2023-03-23T20:17:58.560Z,24.75
2023-03-23T20:20:29.766Z,15.20
2023-03-23T20:23:01.823Z,12.38
2023-03-23T20:25:32.524Z,10.57
2023-03-23T20:30:36.932Z,10.20
2023-03-23T20:33:09.499Z,9.35
2023-03-23T20:35:40.345Z,9.52
2023-03-23T20:38:11.113Z,10.60
2023-03-23T20:40:41.630Z,10.75
2023-03-23T20:43:13.990Z,10.98
2023-03-23T20:45:44.753Z,10.80
2023-03-23T20:48:17.188Z,11.45
2023-03-23T20:50:49.885Z,12.20
2023-03-23T20:53:20.679Z,11.68
2023-03-23T20:55:52.109Z,11.38
2023-03-23T20:58:22.962Z,11.70
2023-03-23T21:00:57.549Z,13.00
2023-03-23T21:03:32.274Z,11.68
2023-03-23T21:06:03.791Z,11.90
2023-03-23T21:08:36.347Z,14.45
2023-03-23T21:11:15.063Z,14.77
2023-03-23T21:13:46.237Z,12.88
2023-03-23T21:16:18.344Z,12.57
2023-03-23T21:18:52.408Z,13.32
2023-03-23T21:23:55.771Z,11.93
2023-03-23T21:26:30.291Z,12.90
2023-03-23T21:29:01.264Z,12.07
2023-03-23T21:31:33.343Z,12.63
2023-03-23T21:34:06.766Z,11.35
2023-03-23T21:36:37.381Z,10.18
2023-03-23T21:39:08.465Z,10.02
2023-03-23T21:41:42.612Z,10.00
2023-03-23T21:44:13.812Z,8.50
2023-03-23T21:46:45.096Z,9.32
2023-03-23T21:49:17.490Z,9.68
2023-03-23T21:51:48.937Z,9.27
2023-03-23T21:54:21.078Z,7.65
2023-03-23T21:56:51.453Z,8.13
2023-03-23T21:59:23.149Z,8.63
2023-03-23T22:01:54.254Z,8.35
2023-03-23T22:04:28.256Z,8.25
2023-03-23T22:06:59.024Z,9.23
2023-03-23T22:09:30.434Z,10.85
2023-03-23T22:12:01.105Z,10.88
2023-03-23T22:14:31.959Z,10.90
2023-03-23T22:17:02.359Z,11.80
2023-03-23T22:19:34.635Z,11.23
2023-03-23T22:22:05.985Z,11.95
2023-03-23T22:24:36.825Z,14.13
2023-03-23T22:27:07.249Z,13.32
2023-03-23T22:29:38.326Z,12.18
2023-03-23T22:32:08.841Z,12.70
2023-03-23T22:34:41.172Z,12.95
2023-03-23T22:37:11.929Z,11.45
2023-03-23T22:39:42.951Z,12.63
2023-03-23T22:42:13.616Z,16.00
2023-03-23T22:44:44.492Z,15.35
2023-03-23T22:47:15.659Z,14.85
2023-03-23T22:49:47.766Z,14.60
2023-03-23T22:52:18.138Z,14.73
2023-03-23T22:54:49.311Z,13.65
2023-03-23T22:57:19.691Z,14.60
2023-03-23T22:59:50.815Z,15.00
2023-03-23T23:02:21.362Z,14.90
2023-03-23T23:04:54.622Z,14.57
2023-03-23T23:07:25.181Z,16.05
2023-03-23T23:09:55.906Z,15.38
2023-03-23T23:12:26.543Z,15.88
2023-03-23T23:14:58.711Z,14.93
2023-03-23T23:17:29.211Z,16.35
2023-03-23T23:20:05.660Z,15.85
2023-03-23T23:22:36.449Z,17.35
2023-03-23T23:25:08.280Z,19.05
2023-03-23T23:27:38.813Z,17.95
2023-03-23T23:30:11.300Z,15.80
2023-03-23T23:32:42.973Z,14.05
2023-03-23T23:35:16.832Z,14.93
2023-03-23T23:40:20.420Z,12.85
2023-03-23T23:42:52.742Z,13.03
2023-03-23T23:45:23.639Z,11.83
2023-03-23T23:47:54.168Z,12.73
2023-03-23T23:50:27.244Z,12.48
2023-03-23T23:52:58.801Z,12.80
2023-03-23T23:55:30.046Z,13.25
2023-03-23T23:58:00.482Z,14.88
